Terminal Aerodrome Forecast
Issued by NWS

Home | Current Version | Previous Version | Text Only | Print | Product List | Glossary On
Versions: 1 2 3 4 5 6 7 8 9 10 11 12 13 14 15 16 17 18 19 20 21 22 23 24 25 26 27
000
FTUS41 KALY 231700
TAFPSF
TAF
KPSF 231723Z 2318/2418 29008KT P6SM SKC
     FM240000 00000KT P6SM SKC
     FM240800 00000KT 2SM BR BKN002
     FM241100 00000KT P6SM SCT002
     FM241300 09005KT P6SM SCT030 SCT250=

USA.gov is the U.S. government's official web portal to all federal, state and local government web resources and services.